sensor_id;sensor_type;location;lat;lon;timestamp;temperature;humidity
2465;DHT22;1244;54.326;10.074;2023-02-11T00:00:29;4.80;99.90
2465;DHT22;1244;54.326;10.074;2023-02-11T00:02:54;4.90;99.90
2465;DHT22;1244;54.326;10.074;2023-02-11T00:05:20;4.80;99.90
2465;DHT22;1244;54.326;10.074;2023-02-11T00:07:45;5.10;99.90
2465;DHT22;1244;54.326;10.074;2023-02-11T00:10:11;5.10;99.90
2465;DHT22;1244;54.326;10.074;2023-02-11T00:12:37;5.00;99.90
2465;DHT22;1244;54.326;10.074;2023-02-11T00:15:04;5.10;99.90
2465;DHT22;1244;54.326;10.074;2023-02-11T00:17:31;5.10;99.90
2465;DHT22;1244;54.326;10.074;2023-02-11T00:19:56;5.30;99.90
2465;DHT22;1244;54.326;10.074;2023-02-11T00:22:22;5.00;99.90
2465;DHT22;1244;54.326;10.074;2023-02-11T00:24:48;4.80;99.90
2465;DHT22;1244;54.326;10.074;2023-02-11T00:27:13;5.10;99.90
2465;DHT22;1244;54.326;10.074;2023-02-11T00:29:39;4.90;99.90
2465;DHT22;1244;54.326;10.074;2023-02-11T00:32:05;5.10;99.90
2465;DHT22;1244;54.326;10.074;2023-02-11T00:34:31;5.00;99.90
2465;DHT22;1244;54.326;10.074;2023-02-11T00:36:57;5.20;99.90
2465;DHT22;1244;54.326;10.074;2023-02-11T00:39:23;5.20;99.90
2465;DHT22;1244;54.326;10.074;2023-02-11T00:41:48;5.10;99.90
2465;DHT22;1244;54.326;10.074;2023-02-11T00:44:14;4.90;99.90
2465;DHT22;1244;54.326;10.074;2023-02-11T00:46:40;5.20;99.90
2465;DHT22;1244;54.326;10.074;2023-02-11T00:49:05;5.30;99.90
2465;DHT22;1244;54.326;10.074;2023-02-11T00:51:31;5.20;99.90
2465;DHT22;1244;54.326;10.074;2023-02-11T00:53:56;5.10;99.90
2465;DHT22;1244;54.326;10.074;2023-02-11T00:56:22;5.40;99.90
2465;DHT22;1244;54.326;10.074;2023-02-11T00:58:47;5.40;99.90
2465;DHT22;1244;54.326;10.074;2023-02-11T01:01:13;5.00;99.90
2465;DHT22;1244;54.326;10.074;2023-02-11T01:03:39;5.40;99.90
2465;DHT22;1244;54.326;10.074;2023-02-11T01:06:06;5.20;99.90
2465;DHT22;1244;54.326;10.074;2023-02-11T01:08:32;5.30;99.90
2465;DHT22;1244;54.326;10.074;2023-02-11T01:11:00;5.30;99.90
2465;DHT22;1244;54.326;10.074;2023-02-11T01:13:27;5.30;99.90
2465;DHT22;1244;54.326;10.074;2023-02-11T01:15:53;5.40;99.90
2465;DHT22;1244;54.326;10.074;2023-02-11T01:18:19;5.20;99.90
2465;DHT22;1244;54.326;10.074;2023-02-11T01:20:45;5.30;99.90
2465;DHT22;1244;54.326;10.074;2023-02-11T01:23:10;5.20;99.90
2465;DHT22;1244;54.326;10.074;2023-02-11T01:25:36;5.20;99.90
2465;DHT22;1244;54.326;10.074;2023-02-11T01:28:01;5.40;99.90
2465;DHT22;1244;54.326;10.074;2023-02-11T01:30:27;5.30;99.90
2465;DHT22;1244;54.326;10.074;2023-02-11T01:32:52;5.30;99.90
2465;DHT22;1244;54.326;10.074;2023-02-11T01:35:18;5.30;99.90
2465;DHT22;1244;54.326;10.074;2023-02-11T01:37:43;5.30;99.90
2465;DHT22;1244;54.326;10.074;2023-02-11T01:40:15;5.20;99.90
2465;DHT22;1244;54.326;10.074;2023-02-11T01:42:42;5.40;99.90
2465;DHT22;1244;54.326;10.074;2023-02-11T01:48:28;5.50;99.90
2465;DHT22;1244;54.326;10.074;2023-02-11T01:51:00;5.50;99.90
2465;DHT22;1244;54.326;10.074;2023-02-11T01:53:27;5.40;99.90
2465;DHT22;1244;54.326;10.074;2023-02-11T01:56:13;5.40;99.90
2465;DHT22;1244;54.326;10.074;2023-02-11T01:59:01;5.50;99.90
2465;DHT22;1244;54.326;10.074;2023-02-11T02:01:30;5.50;99.90
2465;DHT22;1244;54.326;10.074;2023-02-11T02:04:00;5.50;99.90
2465;DHT22;1244;54.326;10.074;2023-02-11T02:06:36;5.50;99.90
2465;DHT22;1244;54.326;10.074;2023-02-11T02:09:07;5.50;99.90
2465;DHT22;1244;54.326;10.074;2023-02-11T02:11:33;5.50;99.90
2465;DHT22;1244;54.326;10.074;2023-02-11T02:13:59;5.60;99.90
2465;DHT22;1244;54.326;10.074;2023-02-11T02:16:30;5.60;99.90
2465;DHT22;1244;54.326;10.074;2023-02-11T02:31:00;5.50;99.90
2465;DHT22;1244;54.326;10.074;2023-02-11T02:33:51;5.60;99.90
2465;DHT22;1244;54.326;10.074;2023-02-11T02:36:23;5.60;99.90
2465;DHT22;1244;54.326;10.074;2023-02-11T02:39:05;5.70;99.90
2465;DHT22;1244;54.326;10.074;2023-02-11T02:41:33;5.60;99.90
2465;DHT22;1244;54.326;10.074;2023-02-11T02:44:00;5.70;99.90
2465;DHT22;1244;54.326;10.074;2023-02-11T02:46:31;5.70;99.90
2465;DHT22;1244;54.326;10.074;2023-02-11T02:48:58;5.70;99.90
2465;DHT22;1244;54.326;10.074;2023-02-11T03:00:11;5.80;99.90
2465;DHT22;1244;54.326;10.074;2023-02-11T03:02:57;5.80;99.90
2465;DHT22;1244;54.326;10.074;2023-02-11T03:08:17;5.90;99.90
2465;DHT22;1244;54.326;10.074;2023-02-11T03:10:50;5.90;99.90
2465;DHT22;1244;54.326;10.074;2023-02-11T03:13:19;6.00;99.90
2465;DHT22;1244;54.326;10.074;2023-02-11T03:15:50;6.00;99.90
2465;DHT22;1244;54.326;10.074;2023-02-11T03:18:23;6.10;99.90
2465;DHT22;1244;54.326;10.074;2023-02-11T03:20:51;6.10;99.90
2465;DHT22;1244;54.326;10.074;2023-02-11T03:23:31;6.20;99.90
2465;DHT22;1244;54.326;10.074;2023-02-11T03:26:04;6.20;99.90
2465;DHT22;1244;54.326;10.074;2023-02-11T03:28:36;6.20;99.90
2465;DHT22;1244;54.326;10.074;2023-02-11T03:31:29;6.10;99.90
2465;DHT22;1244;54.326;10.074;2023-02-11T03:37:38;6.20;99.90
2465;DHT22;1244;54.326;10.074;2023-02-11T03:40:09;6.20;99.90
2465;DHT22;1244;54.326;10.074;2023-02-11T03:42:43;6.20;99.90
2465;DHT22;1244;54.326;10.074;2023-02-11T03:45:12;6.20;99.90
2465;DHT22;1244;54.326;10.074;2023-02-11T03:47:45;6.30;99.90
2465;DHT22;1244;54.326;10.074;2023-02-11T03:50:13;6.10;99.90
2465;DHT22;1244;54.326;10.074;2023-02-11T03:52:39;6.20;99.90
2465;DHT22;1244;54.326;10.074;2023-02-11T03:55:10;6.30;99.90
2465;DHT22;1244;54.326;10.074;2023-02-11T03:57:36;6.30;99.90
2465;DHT22;1244;54.326;10.074;2023-02-11T04:00:04;6.30;99.90
2465;DHT22;1244;54.326;10.074;2023-02-11T04:02:32;6.30;99.90
2465;DHT22;1244;54.326;10.074;2023-02-11T04:04:58;6.40;99.90
2465;DHT22;1244;54.326;10.074;2023-02-11T04:07:23;6.40;99.90
2465;DHT22;1244;54.326;10.074;2023-02-11T04:09:49;6.30;99.90
2465;DHT22;1244;54.326;10.074;2023-02-11T04:12:14;6.40;99.90
2465;DHT22;1244;54.326;10.074;2023-02-11T04:14:40;6.30;99.90
2465;DHT22;1244;54.326;10.074;2023-02-11T04:17:05;6.20;99.90
2465;DHT22;1244;54.326;10.074;2023-02-11T04:19:33;6.30;99.90
2465;DHT22;1244;54.326;10.074;2023-02-11T04:21:59;6.30;99.90
2465;DHT22;1244;54.326;10.074;2023-02-11T04:24:24;6.40;99.90
2465;DHT22;1244;54.326;10.074;2023-02-11T04:26:50;6.40;99.90
2465;DHT22;1244;54.326;10.074;2023-02-11T04:29:15;6.40;99.90
2465;DHT22;1244;54.326;10.074;2023-02-11T04:31:41;6.40;99.90
2465;DHT22;1244;54.326;10.074;2023-02-11T04:34:06;6.40;99.90
2465;DHT22;1244;54.326;10.074;2023-02-11T04:36:32;6.40;99.90
2465;DHT22;1244;54.326;10.074;2023-02-11T04:38:57;6.40;99.90
2465;DHT22;1244;54.326;10.074;2023-02-11T04:41:23;6.40;99.90
2465;DHT22;1244;54.326;10.074;2023-02-11T04:43:48;6.40;99.90
2465;DHT22;1244;54.326;10.074;2023-02-11T04:46:14;6.50;99.90
2465;DHT22;1244;54.326;10.074;2023-02-11T04:48:39;6.30;99.90
2465;DHT22;1244;54.326;10.074;2023-02-11T04:51:05;6.50;99.90
2465;DHT22;1244;54.326;10.074;2023-02-11T04:53:30;6.40;99.90
2465;DHT22;1244;54.326;10.074;2023-02-11T04:55:56;6.40;99.90
2465;DHT22;1244;54.326;10.074;2023-02-11T04:58:21;6.50;99.90
2465;DHT22;1244;54.326;10.074;2023-02-11T05:00:48;6.50;99.90
2465;DHT22;1244;54.326;10.074;2023-02-11T05:03:14;6.40;99.90
2465;DHT22;1244;54.326;10.074;2023-02-11T05:05:41;6.40;99.90
2465;DHT22;1244;54.326;10.074;2023-02-11T05:08:08;6.40;99.90
2465;DHT22;1244;54.326;10.074;2023-02-11T05:10:34;6.40;99.90
2465;DHT22;1244;54.326;10.074;2023-02-11T05:12:59;6.40;99.90
2465;DHT22;1244;54.326;10.074;2023-02-11T05:15:25;6.40;99.90
2465;DHT22;1244;54.326;10.074;2023-02-11T05:17:51;6.50;99.90
2465;DHT22;1244;54.326;10.074;2023-02-11T05:20:17;6.40;99.90
2465;DHT22;1244;54.326;10.074;2023-02-11T05:22:43;6.40;99.90
2465;DHT22;1244;54.326;10.074;2023-02-11T05:25:08;6.50;99.90
2465;DHT22;1244;54.326;10.074;2023-02-11T05:27:34;6.50;99.90
2465;DHT22;1244;54.326;10.074;2023-02-11T05:29:59;6.50;99.90
2465;DHT22;1244;54.326;10.074;2023-02-11T05:32:25;6.60;99.90
2465;DHT22;1244;54.326;10.074;2023-02-11T05:34:50;6.50;99.90
2465;DHT22;1244;54.326;10.074;2023-02-11T05:37:16;6.50;99.90
2465;DHT22;1244;54.326;10.074;2023-02-11T05:39:42;6.50;99.90
2465;DHT22;1244;54.326;10.074;2023-02-11T05:42:07;6.50;99.90
2465;DHT22;1244;54.326;10.074;2023-02-11T05:44:33;6.50;99.90
2465;DHT22;1244;54.326;10.074;2023-02-11T05:46:59;6.40;99.90
2465;DHT22;1244;54.326;10.074;2023-02-11T05:49:24;6.50;99.90
2465;DHT22;1244;54.326;10.074;2023-02-11T05:51:50;6.50;99.90
2465;DHT22;1244;54.326;10.074;2023-02-11T05:54:15;6.50;99.90
2465;DHT22;1244;54.326;10.074;2023-02-11T05:56:41;6.60;99.90
2465;DHT22;1244;54.326;10.074;2023-02-11T05:59:07;6.50;99.90
2465;DHT22;1244;54.326;10.074;2023-02-11T06:01:32;6.60;99.90
2465;DHT22;1244;54.326;10.074;2023-02-11T06:03:58;6.50;99.90
2465;DHT22;1244;54.326;10.074;2023-02-11T06:06:24;6.50;99.90
2465;DHT22;1244;54.326;10.074;2023-02-11T06:08:50;6.50;99.90
2465;DHT22;1244;54.326;10.074;2023-02-11T06:11:16;6.50;99.90
2465;DHT22;1244;54.326;10.074;2023-02-11T06:13:42;6.50;99.90
2465;DHT22;1244;54.326;10.074;2023-02-11T06:16:07;6.50;99.90
2465;DHT22;1244;54.326;10.074;2023-02-11T06:18:33;6.50;99.90
2465;DHT22;1244;54.326;10.074;2023-02-11T06:20:59;6.50;99.90
2465;DHT22;1244;54.326;10.074;2023-02-11T06:23:25;6.50;99.90
2465;DHT22;1244;54.326;10.074;2023-02-11T06:25:51;6.50;99.90
2465;DHT22;1244;54.326;10.074;2023-02-11T06:28:17;6.60;99.90
2465;DHT22;1244;54.326;10.074;2023-02-11T06:30:43;6.60;99.90
2465;DHT22;1244;54.326;10.074;2023-02-11T06:33:08;6.50;99.90
2465;DHT22;1244;54.326;10.074;2023-02-11T06:35:34;6.50;99.90
2465;DHT22;1244;54.326;10.074;2023-02-11T06:38:02;6.50;99.90
2465;DHT22;1244;54.326;10.074;2023-02-11T06:40:27;6.50;99.90
2465;DHT22;1244;54.326;10.074;2023-02-11T06:42:53;6.50;99.90
2465;DHT22;1244;54.326;10.074;2023-02-11T06:45:18;6.60;99.90
2465;DHT22;1244;54.326;10.074;2023-02-11T06:47:44;6.60;99.90
2465;DHT22;1244;54.326;10.074;2023-02-11T06:50:12;6.60;99.90
2465;DHT22;1244;54.326;10.074;2023-02-11T06:52:38;6.60;99.90
2465;DHT22;1244;54.326;10.074;2023-02-11T06:55:03;6.60;99.90
2465;DHT22;1244;54.326;10.074;2023-02-11T06:57:30;6.60;99.90
2465;DHT22;1244;54.326;10.074;2023-02-11T06:59:55;6.60;99.90
2465;DHT22;1244;54.326;10.074;2023-02-11T07:02:21;6.60;99.90
2465;DHT22;1244;54.326;10.074;2023-02-11T07:04:47;6.60;99.90
2465;DHT22;1244;54.326;10.074;2023-02-11T07:07:13;6.60;99.90
2465;DHT22;1244;54.326;10.074;2023-02-11T07:09:39;6.60;99.90
2465;DHT22;1244;54.326;10.074;2023-02-11T07:12:04;6.60;99.90
2465;DHT22;1244;54.326;10.074;2023-02-11T07:14:30;6.60;99.90
2465;DHT22;1244;54.326;10.074;2023-02-11T07:16:56;6.60;99.90
2465;DHT22;1244;54.326;10.074;2023-02-11T07:19:22;6.60;99.90
2465;DHT22;1244;54.326;10.074;2023-02-11T07:21:47;6.60;99.90
2465;DHT22;1244;54.326;10.074;2023-02-11T07:24:13;6.60;99.90
2465;DHT22;1244;54.326;10.074;2023-02-11T07:26:39;6.60;99.90
2465;DHT22;1244;54.326;10.074;2023-02-11T07:29:04;6.70;99.90
2465;DHT22;1244;54.326;10.074;2023-02-11T07:31:30;6.60;99.90
2465;DHT22;1244;54.326;10.074;2023-02-11T07:33:58;6.70;99.90
2465;DHT22;1244;54.326;10.074;2023-02-11T07:36:26;6.70;99.90
2465;DHT22;1244;54.326;10.074;2023-02-11T07:38:52;6.60;99.90
2465;DHT22;1244;54.326;10.074;2023-02-11T07:41:20;6.70;99.90
2465;DHT22;1244;54.326;10.074;2023-02-11T07:43:46;6.70;99.90
2465;DHT22;1244;54.326;10.074;2023-02-11T07:46:15;6.70;99.90
2465;DHT22;1244;54.326;10.074;2023-02-11T07:48:41;6.70;99.90
2465;DHT22;1244;54.326;10.074;2023-02-11T07:51:16;6.60;99.90
2465;DHT22;1244;54.326;10.074;2023-02-11T07:53:42;6.70;99.90
2465;DHT22;1244;54.326;10.074;2023-02-11T07:56:09;6.70;99.90
2465;DHT22;1244;54.326;10.074;2023-02-11T07:58:35;6.70;99.90
2465;DHT22;1244;54.326;10.074;2023-02-11T08:01:03;6.70;99.90
2465;DHT22;1244;54.326;10.074;2023-02-11T08:03:30;6.70;99.90
2465;DHT22;1244;54.326;10.074;2023-02-11T08:05:56;6.70;99.90
2465;DHT22;1244;54.326;10.074;2023-02-11T08:08:22;6.70;99.90
2465;DHT22;1244;54.326;10.074;2023-02-11T08:10:47;6.70;99.90
2465;DHT22;1244;54.326;10.074;2023-02-11T08:13:13;6.70;99.90
2465;DHT22;1244;54.326;10.074;2023-02-11T08:15:38;6.70;99.90
2465;DHT22;1244;54.326;10.074;2023-02-11T08:18:04;6.70;99.90
2465;DHT22;1244;54.326;10.074;2023-02-11T08:20:29;6.70;99.90
2465;DHT22;1244;54.326;10.074;2023-02-11T08:22:55;6.70;99.90
2465;DHT22;1244;54.326;10.074;2023-02-11T08:25:21;6.70;99.90
2465;DHT22;1244;54.326;10.074;2023-02-11T08:27:46;6.80;99.90
2465;DHT22;1244;54.326;10.074;2023-02-11T08:30:12;6.80;99.90
2465;DHT22;1244;54.326;10.074;2023-02-11T08:32:38;6.80;99.90
2465;DHT22;1244;54.326;10.074;2023-02-11T08:35:04;6.80;99.90
2465;DHT22;1244;54.326;10.074;2023-02-11T08:37:32;6.80;99.90
2465;DHT22;1244;54.326;10.074;2023-02-11T08:39:58;6.80;99.90
2465;DHT22;1244;54.326;10.074;2023-02-11T08:42:23;6.80;99.90
2465;DHT22;1244;54.326;10.074;2023-02-11T08:44:49;6.70;99.90
2465;DHT22;1244;54.326;10.074;2023-02-11T08:47:14;6.80;99.90
2465;DHT22;1244;54.326;10.074;2023-02-11T08:49:40;6.80;99.90
2465;DHT22;1244;54.326;10.074;2023-02-11T08:52:07;6.90;99.90
2465;DHT22;1244;54.326;10.074;2023-02-11T08:54:32;6.90;99.90
2465;DHT22;1244;54.326;10.074;2023-02-11T08:56:58;6.90;99.90
2465;DHT22;1244;54.326;10.074;2023-02-11T08:59:26;6.90;99.90
2465;DHT22;1244;54.326;10.074;2023-02-11T09:01:51;6.90;99.90
2465;DHT22;1244;54.326;10.074;2023-02-11T09:04:17;6.80;99.90
2465;DHT22;1244;54.326;10.074;2023-02-11T09:06:43;6.90;99.90
2465;DHT22;1244;54.326;10.074;2023-02-11T09:09:12;6.90;99.90
2465;DHT22;1244;54.326;10.074;2023-02-11T09:11:39;6.90;99.90
2465;DHT22;1244;54.326;10.074;2023-02-11T09:14:06;7.00;99.90
2465;DHT22;1244;54.326;10.074;2023-02-11T09:16:34;6.90;99.90
2465;DHT22;1244;54.326;10.074;2023-02-11T09:19:02;7.00;99.90
2465;DHT22;1244;54.326;10.074;2023-02-11T09:21:28;7.00;99.90
2465;DHT22;1244;54.326;10.074;2023-02-11T09:23:54;7.00;99.90
2465;DHT22;1244;54.326;10.074;2023-02-11T09:26:25;7.10;99.90
2465;DHT22;1244;54.326;10.074;2023-02-11T09:28:52;7.20;99.90
2465;DHT22;1244;54.326;10.074;2023-02-11T09:31:20;7.20;99.90
2465;DHT22;1244;54.326;10.074;2023-02-11T09:33:48;7.30;99.90
2465;DHT22;1244;54.326;10.074;2023-02-11T09:36:19;7.20;99.90
2465;DHT22;1244;54.326;10.074;2023-02-11T09:38:45;7.20;99.90
2465;DHT22;1244;54.326;10.074;2023-02-11T09:43:56;7.20;99.90
2465;DHT22;1244;54.326;10.074;2023-02-11T09:46:23;7.30;99.90
2465;DHT22;1244;54.326;10.074;2023-02-11T09:48:52;7.20;99.90
2465;DHT22;1244;54.326;10.074;2023-02-11T09:51:29;7.30;99.90
2465;DHT22;1244;54.326;10.074;2023-02-11T09:54:00;7.30;99.90
2465;DHT22;1244;54.326;10.074;2023-02-11T09:56:27;7.40;99.90
2465;DHT22;1244;54.326;10.074;2023-02-11T09:58:53;7.40;99.90
2465;DHT22;1244;54.326;10.074;2023-02-11T10:01:38;7.40;99.90
2465;DHT22;1244;54.326;10.074;2023-02-11T10:10:03;7.50;99.90
2465;DHT22;1244;54.326;10.074;2023-02-11T10:12:55;7.50;99.90
2465;DHT22;1244;54.326;10.074;2023-02-11T10:23:50;7.60;99.90
2465;DHT22;1244;54.326;10.074;2023-02-11T10:26:17;7.50;99.90
2465;DHT22;1244;54.326;10.074;2023-02-11T10:28:46;7.60;99.90
2465;DHT22;1244;54.326;10.074;2023-02-11T10:31:24;7.60;99.90
2465;DHT22;1244;54.326;10.074;2023-02-11T10:34:04;7.60;99.90
2465;DHT22;1244;54.326;10.074;2023-02-11T10:36:38;7.60;99.90
2465;DHT22;1244;54.326;10.074;2023-02-11T10:41:40;7.70;99.90
2465;DHT22;1244;54.326;10.074;2023-02-11T10:44:07;7.80;99.90
2465;DHT22;1244;54.326;10.074;2023-02-11T10:46:36;7.80;99.90
2465;DHT22;1244;54.326;10.074;2023-02-11T10:49:04;7.80;99.90
2465;DHT22;1244;54.326;10.074;2023-02-11T10:51:31;7.80;99.90
2465;DHT22;1244;54.326;10.074;2023-02-11T10:56:36;7.60;99.90
2465;DHT22;1244;54.326;10.074;2023-02-11T11:01:57;7.70;99.90
2465;DHT22;1244;54.326;10.074;2023-02-11T11:10:03;7.80;99.90
2465;DHT22;1244;54.326;10.074;2023-02-11T11:17:36;7.90;99.90
2465;DHT22;1244;54.326;10.074;2023-02-11T11:20:29;7.90;99.90
2465;DHT22;1244;54.326;10.074;2023-02-11T11:23:08;7.90;99.90
2465;DHT22;1244;54.326;10.074;2023-02-11T11:25:37;8.00;99.90
2465;DHT22;1244;54.326;10.074;2023-02-11T11:28:04;8.00;99.90
2465;DHT22;1244;54.326;10.074;2023-02-11T11:30:38;8.00;99.90
2465;DHT22;1244;54.326;10.074;2023-02-11T11:33:19;8.10;99.90
2465;DHT22;1244;54.326;10.074;2023-02-11T11:35:55;8.10;99.90
2465;DHT22;1244;54.326;10.074;2023-02-11T11:38:22;8.20;99.90
2465;DHT22;1244;54.326;10.074;2023-02-11T11:41:19;8.30;99.90
2465;DHT22;1244;54.326;10.074;2023-02-11T11:46:33;8.20;99.90
2465;DHT22;1244;54.326;10.074;2023-02-11T11:49:12;8.30;99.90
2465;DHT22;1244;54.326;10.074;2023-02-11T11:51:41;8.40;99.90
2465;DHT22;1244;54.326;10.074;2023-02-11T11:54:14;8.30;99.90
2465;DHT22;1244;54.326;10.074;2023-02-11T11:56:59;8.30;99.90
2465;DHT22;1244;54.326;10.074;2023-02-11T11:59:27;8.30;99.90
2465;DHT22;1244;54.326;10.074;2023-02-11T12:10:30;8.30;99.90
2465;DHT22;1244;54.326;10.074;2023-02-11T12:13:27;8.30;99.90
2465;DHT22;1244;54.326;10.074;2023-02-11T12:16:10;8.30;99.90
2465;DHT22;1244;54.326;10.074;2023-02-11T12:19:01;8.30;99.90
2465;DHT22;1244;54.326;10.074;2023-02-11T12:33:20;8.60;99.90
2465;DHT22;1244;54.326;10.074;2023-02-11T12:38:31;8.70;99.90
2465;DHT22;1244;54.326;10.074;2023-02-11T12:41:03;8.70;99.90
2465;DHT22;1244;54.326;10.074;2023-02-11T12:43:41;8.80;99.90
2465;DHT22;1244;54.326;10.074;2023-02-11T12:49:20;8.70;99.90
2465;DHT22;1244;54.326;10.074;2023-02-11T12:54:53;8.60;99.90
2465;DHT22;1244;54.326;10.074;2023-02-11T12:57:31;8.60;99.90
2465;DHT22;1244;54.326;10.074;2023-02-11T13:05:11;8.40;99.90
2465;DHT22;1244;54.326;10.074;2023-02-11T13:07:44;8.50;99.90
2465;DHT22;1244;54.326;10.074;2023-02-11T13:12:45;8.40;99.90
2465;DHT22;1244;54.326;10.074;2023-02-11T13:15:29;8.40;99.90
2465;DHT22;1244;54.326;10.074;2023-02-11T13:18:29;8.40;99.90
2465;DHT22;1244;54.326;10.074;2023-02-11T13:22:04;8.40;99.90
2465;DHT22;1244;54.326;10.074;2023-02-11T13:32:14;8.30;99.90
2465;DHT22;1244;54.326;10.074;2023-02-11T13:37:25;8.30;99.90
2465;DHT22;1244;54.326;10.074;2023-02-11T13:40:04;8.40;99.90
2465;DHT22;1244;54.326;10.074;2023-02-11T13:42:32;8.40;99.90
2465;DHT22;1244;54.326;10.074;2023-02-11T13:44:59;8.40;99.90
2465;DHT22;1244;54.326;10.074;2023-02-11T13:49:53;8.40;99.90
2465;DHT22;1244;54.326;10.074;2023-02-11T13:52:29;8.40;99.90
2465;DHT22;1244;54.326;10.074;2023-02-11T13:55:06;8.30;99.90
2465;DHT22;1244;54.326;10.074;2023-02-11T13:57:35;8.30;99.90
2465;DHT22;1244;54.326;10.074;2023-02-11T14:06:13;8.40;99.90
2465;DHT22;1244;54.326;10.074;2023-02-11T14:08:59;8.50;99.90
2465;DHT22;1244;54.326;10.074;2023-02-11T14:11:50;8.40;99.90
2465;DHT22;1244;54.326;10.074;2023-02-11T14:14:27;8.40;99.90
2465;DHT22;1244;54.326;10.074;2023-02-11T14:19:40;8.40;99.90
2465;DHT22;1244;54.326;10.074;2023-02-11T14:22:19;8.40;99.90
2465;DHT22;1244;54.326;10.074;2023-02-11T14:24:52;8.40;99.90
2465;DHT22;1244;54.326;10.074;2023-02-11T14:27:26;8.40;99.90
2465;DHT22;1244;54.326;10.074;2023-02-11T14:30:25;8.40;99.90
2465;DHT22;1244;54.326;10.074;2023-02-11T14:35:46;8.40;99.90
2465;DHT22;1244;54.326;10.074;2023-02-11T14:43:20;8.50;99.90
2465;DHT22;1244;54.326;10.074;2023-02-11T14:45:50;8.50;99.90
2465;DHT22;1244;54.326;10.074;2023-02-11T14:48:19;8.40;99.90
2465;DHT22;1244;54.326;10.074;2023-02-11T14:51:01;8.40;99.90
2465;DHT22;1244;54.326;10.074;2023-02-11T14:53:29;8.50;99.90
2465;DHT22;1244;54.326;10.074;2023-02-11T14:55:56;8.50;99.90
2465;DHT22;1244;54.326;10.074;2023-02-11T14:58:27;8.50;99.90
2465;DHT22;1244;54.326;10.074;2023-02-11T15:00:55;8.50;99.90
2465;DHT22;1244;54.326;10.074;2023-02-11T15:06:33;8.50;99.90
2465;DHT22;1244;54.326;10.074;2023-02-11T15:09:12;8.50;99.90
2465;DHT22;1244;54.326;10.074;2023-02-11T15:11:42;8.60;99.90
2465;DHT22;1244;54.326;10.074;2023-02-11T15:14:32;8.50;99.90
2465;DHT22;1244;54.326;10.074;2023-02-11T15:17:00;8.50;99.90
2465;DHT22;1244;54.326;10.074;2023-02-11T15:19:32;8.60;99.90
2465;DHT22;1244;54.326;10.074;2023-02-11T15:22:00;8.60;99.90
2465;DHT22;1244;54.326;10.074;2023-02-11T15:24:33;8.60;99.90
2465;DHT22;1244;54.326;10.074;2023-02-11T15:27:11;8.60;99.90
2465;DHT22;1244;54.326;10.074;2023-02-11T15:29:48;8.60;99.90
2465;DHT22;1244;54.326;10.074;2023-02-11T15:32:17;8.50;99.90
2465;DHT22;1244;54.326;10.074;2023-02-11T15:34:44;8.40;99.90
2465;DHT22;1244;54.326;10.074;2023-02-11T15:39:44;8.40;99.90
2465;DHT22;1244;54.326;10.074;2023-02-11T15:44:49;8.30;99.90
2465;DHT22;1244;54.326;10.074;2023-02-11T15:47:19;8.30;99.90
2465;DHT22;1244;54.326;10.074;2023-02-11T15:49:46;8.20;99.90
2465;DHT22;1244;54.326;10.074;2023-02-11T15:52:26;8.20;99.90
2465;DHT22;1244;54.326;10.074;2023-02-11T15:54:54;8.20;99.90
2465;DHT22;1244;54.326;10.074;2023-02-11T15:57:21;8.20;99.90
2465;DHT22;1244;54.326;10.074;2023-02-11T15:59:49;8.10;99.90
2465;DHT22;1244;54.326;10.074;2023-02-11T16:02:35;8.10;99.90
2465;DHT22;1244;54.326;10.074;2023-02-11T16:05:08;8.10;99.90
2465;DHT22;1244;54.326;10.074;2023-02-11T16:07:47;8.00;99.90
2465;DHT22;1244;54.326;10.074;2023-02-11T16:10:33;8.10;99.90
2465;DHT22;1244;54.326;10.074;2023-02-11T16:18:12;8.00;99.90
2465;DHT22;1244;54.326;10.074;2023-02-11T16:20:46;7.90;99.90
2465;DHT22;1244;54.326;10.074;2023-02-11T16:23:21;7.90;99.90
2465;DHT22;1244;54.326;10.074;2023-02-11T16:25:50;7.90;99.90
2465;DHT22;1244;54.326;10.074;2023-02-11T16:28:19;7.90;99.90
2465;DHT22;1244;54.326;10.074;2023-02-11T16:30:45;7.80;99.90
2465;DHT22;1244;54.326;10.074;2023-02-11T16:33:15;7.90;99.90
2465;DHT22;1244;54.326;10.074;2023-02-11T16:35:40;7.80;99.90
2465;DHT22;1244;54.326;10.074;2023-02-11T16:38:09;7.80;99.90
2465;DHT22;1244;54.326;10.074;2023-02-11T16:40:34;7.90;99.90
2465;DHT22;1244;54.326;10.074;2023-02-11T16:43:08;7.80;99.90
2465;DHT22;1244;54.326;10.074;2023-02-11T16:45:36;7.90;99.90
2465;DHT22;1244;54.326;10.074;2023-02-11T16:48:05;7.70;99.90
2465;DHT22;1244;54.326;10.074;2023-02-11T16:50:31;7.80;99.90
2465;DHT22;1244;54.326;10.074;2023-02-11T16:52:57;7.70;99.90
2465;DHT22;1244;54.326;10.074;2023-02-11T16:55:24;7.60;99.90
2465;DHT22;1244;54.326;10.074;2023-02-11T16:57:50;7.70;99.90
2465;DHT22;1244;54.326;10.074;2023-02-11T17:00:16;7.70;99.90
2465;DHT22;1244;54.326;10.074;2023-02-11T17:02:42;7.70;99.90
2465;DHT22;1244;54.326;10.074;2023-02-11T17:05:15;7.60;99.90
2465;DHT22;1244;54.326;10.074;2023-02-11T17:07:42;7.60;99.90
2465;DHT22;1244;54.326;10.074;2023-02-11T17:10:21;7.50;99.90
2465;DHT22;1244;54.326;10.074;2023-02-11T17:12:47;7.60;99.90
2465;DHT22;1244;54.326;10.074;2023-02-11T17:15:13;7.50;99.90
2465;DHT22;1244;54.326;10.074;2023-02-11T17:17:39;7.50;99.90
2465;DHT22;1244;54.326;10.074;2023-02-11T17:20:05;7.50;99.90
2465;DHT22;1244;54.326;10.074;2023-02-11T17:22:31;7.50;99.90
2465;DHT22;1244;54.326;10.074;2023-02-11T17:24:57;7.40;99.90
2465;DHT22;1244;54.326;10.074;2023-02-11T17:27:23;7.40;99.90
2465;DHT22;1244;54.326;10.074;2023-02-11T17:29:49;7.50;99.90
2465;DHT22;1244;54.326;10.074;2023-02-11T17:32:14;7.40;99.90
2465;DHT22;1244;54.326;10.074;2023-02-11T17:34:40;7.50;99.90
2465;DHT22;1244;54.326;10.074;2023-02-11T17:37:05;7.40;99.90
2465;DHT22;1244;54.326;10.074;2023-02-11T17:39:34;7.40;99.90
2465;DHT22;1244;54.326;10.074;2023-02-11T17:42:00;7.30;99.90
2465;DHT22;1244;54.326;10.074;2023-02-11T17:44:26;7.30;99.90
2465;DHT22;1244;54.326;10.074;2023-02-11T17:46:51;7.20;99.90
2465;DHT22;1244;54.326;10.074;2023-02-11T17:49:17;7.30;99.90
2465;DHT22;1244;54.326;10.074;2023-02-11T17:51:43;7.20;99.90
2465;DHT22;1244;54.326;10.074;2023-02-11T17:54:16;7.30;99.90
2465;DHT22;1244;54.326;10.074;2023-02-11T17:56:43;7.20;99.90
2465;DHT22;1244;54.326;10.074;2023-02-11T17:59:10;7.20;99.90
2465;DHT22;1244;54.326;10.074;2023-02-11T18:01:38;7.30;99.90
2465;DHT22;1244;54.326;10.074;2023-02-11T18:04:04;7.30;99.90
2465;DHT22;1244;54.326;10.074;2023-02-11T18:06:30;7.30;99.90
2465;DHT22;1244;54.326;10.074;2023-02-11T18:08:58;7.30;99.90
2465;DHT22;1244;54.326;10.074;2023-02-11T18:11:26;7.30;99.90
2465;DHT22;1244;54.326;10.074;2023-02-11T18:13:52;7.30;99.90
2465;DHT22;1244;54.326;10.074;2023-02-11T18:16:22;7.40;99.90
2465;DHT22;1244;54.326;10.074;2023-02-11T18:18:48;7.40;99.90
2465;DHT22;1244;54.326;10.074;2023-02-11T18:21:15;7.40;99.90
2465;DHT22;1244;54.326;10.074;2023-02-11T18:23:42;7.30;99.90
2465;DHT22;1244;54.326;10.074;2023-02-11T18:26:09;7.40;99.90
2465;DHT22;1244;54.326;10.074;2023-02-11T18:28:35;7.40;99.90
2465;DHT22;1244;54.326;10.074;2023-02-11T18:31:02;7.40;99.90
2465;DHT22;1244;54.326;10.074;2023-02-11T18:33:29;7.40;99.90
2465;DHT22;1244;54.326;10.074;2023-02-11T18:35:55;7.30;99.90
2465;DHT22;1244;54.326;10.074;2023-02-11T18:38:20;7.20;99.90
2465;DHT22;1244;54.326;10.074;2023-02-11T18:40:47;7.30;99.90
2465;DHT22;1244;54.326;10.074;2023-02-11T18:43:18;7.30;99.90